首页
METAR-TAF:

METAR-TAF

机场 :

恰納卡萊, 土耳其

纬度: 40-08N, 经度: 026-24E, 海拔: 3米

当前天气观测

该预报发布于1小时和14分钟前的08:50 UTC
风速5节,风向多变
温度 11°C
湿度 82%
气压 1008 hPa
能见度10公里或以上
散云层高于3500英尺
多云层高于10000英尺

METAR: LTBH 020850Z VRB05KT 9999 SCT035 BKN100 11/08 Q1008 RESHRA

时间: 13:04 (10:04 UTC)

预报

该预报发布于2小时和24分钟前的07:40 UTC
预报有效从02日的 09点(UTC)到 02日的 18点(UTC)
风速13节,风向北转东北
能见度10公里或以上
少量云层高于1500英尺
多云层高于3500英尺
多云层高于10000英尺
小阵雨

TAF: LTBH 020740Z 0209/0218 03013KT 9999 -SHRA FEW015 BKN035 BKN100

超过4000个机场的气象观测和天气预报(METAR&TAF报告)。

可查询的气象台以黄色和红色小点在地图上表示。

将鼠标移到小点上方,可查看气象台名称。

然后点击查看天气观测和预报。

如需切换地图:点击带黑十字的绿色按钮放大地图;点击带横线的绿色按钮缩小地图;或者点击绿色箭头查看邻近地区的地图。


METAR-TAF: